sensor_id;sensor_type;location;lat;lon;timestamp;pressure;altitude;pressure_sealevel;temperature;humidity
2681;BME280;1350;42.134;24.708;2023-03-16T00:00:42;98329.34;;;10.23;85.96
2681;BME280;1350;42.134;24.708;2023-03-16T00:03:09;98334.53;;;10.24;85.63
2681;BME280;1350;42.134;24.708;2023-03-16T00:05:36;98339.72;;;10.26;85.76
2681;BME280;1350;42.134;24.708;2023-03-16T00:08:03;98340.78;;;10.23;86.09
2681;BME280;1350;42.134;24.708;2023-03-16T00:10:30;98334.31;;;10.27;86.31
2681;BME280;1350;42.134;24.708;2023-03-16T00:12:57;98345.00;;;10.26;86.87
2681;BME280;1350;42.134;24.708;2023-03-16T00:15:23;98333.75;;;10.35;86.46
2681;BME280;1350;42.134;24.708;2023-03-16T00:17:51;98333.53;;;10.38;87.40
2681;BME280;1350;42.134;24.708;2023-03-16T00:20:19;98338.22;;;10.35;88.31
2681;BME280;1350;42.134;24.708;2023-03-16T00:22:47;98337.91;;;10.39;89.07
2681;BME280;1350;42.134;24.708;2023-03-16T00:25:14;98344.13;;;10.38;89.98
2681;BME280;1350;42.134;24.708;2023-03-16T00:27:41;98341.59;;;10.37;91.09
2681;BME280;1350;42.134;24.708;2023-03-16T00:30:09;98329.72;;;10.42;91.37
2681;BME280;1350;42.134;24.708;2023-03-16T00:32:37;98328.66;;;10.45;91.52
2681;BME280;1350;42.134;24.708;2023-03-16T00:35:06;98324.31;;;10.44;92.34
2681;BME280;1350;42.134;24.708;2023-03-16T00:37:33;98327.34;;;10.50;92.19
2681;BME280;1350;42.134;24.708;2023-03-16T00:40:01;98332.38;;;10.42;93.01
2681;BME280;1350;42.134;24.708;2023-03-16T00:42:32;98325.78;;;10.48;93.30
2681;BME280;1350;42.134;24.708;2023-03-16T00:44:59;98330.09;;;10.49;93.19
2681;BME280;1350;42.134;24.708;2023-03-16T00:47:28;98327.47;;;10.49;93.76
2681;BME280;1350;42.134;24.708;2023-03-16T00:49:56;98338.16;;;10.47;94.24
2681;BME280;1350;42.134;24.708;2023-03-16T00:52:25;98340.81;;;10.47;94.47
2681;BME280;1350;42.134;24.708;2023-03-16T00:54:53;98346.13;;;10.47;94.83
2681;BME280;1350;42.134;24.708;2023-03-16T00:57:22;98352.38;;;10.46;95.31
2681;BME280;1350;42.134;24.708;2023-03-16T00:59:49;98345.19;;;10.48;96.21
2681;BME280;1350;42.134;24.708;2023-03-16T01:02:17;98351.41;;;10.47;96.63
2681;BME280;1350;42.134;24.708;2023-03-16T01:04:47;98355.78;;;10.48;97.37
2681;BME280;1350;42.134;24.708;2023-03-16T01:07:14;98361.81;;;10.50;97.59
2681;BME280;1350;42.134;24.708;2023-03-16T01:09:43;98363.72;;;10.48;98.06
2681;BME280;1350;42.134;24.708;2023-03-16T01:12:11;98363.41;;;10.53;98.36
2681;BME280;1350;42.134;24.708;2023-03-16T01:14:39;98366.16;;;10.51;98.84
2681;BME280;1350;42.134;24.708;2023-03-16T01:17:08;98366.59;;;10.45;99.78
2681;BME280;1350;42.134;24.708;2023-03-16T01:19:35;98369.97;;;10.47;100.00
2681;BME280;1350;42.134;24.708;2023-03-16T01:22:03;98376.53;;;10.54;100.00
2681;BME280;1350;42.134;24.708;2023-03-16T01:24:30;98371.47;;;10.51;100.00
2681;BME280;1350;42.134;24.708;2023-03-16T01:26:58;98376.34;;;10.45;100.00
2681;BME280;1350;42.134;24.708;2023-03-16T01:29:25;98377.53;;;10.41;100.00
2681;BME280;1350;42.134;24.708;2023-03-16T01:31:52;98371.91;;;10.33;100.00
2681;BME280;1350;42.134;24.708;2023-03-16T01:34:20;98387.19;;;10.29;100.00
2681;BME280;1350;42.134;24.708;2023-03-16T01:36:48;98381.34;;;10.24;100.00
2681;BME280;1350;42.134;24.708;2023-03-16T01:39:15;98390.47;;;10.07;100.00
2681;BME280;1350;42.134;24.708;2023-03-16T01:41:43;98393.19;;;10.06;100.00
2681;BME280;1350;42.134;24.708;2023-03-16T01:44:14;98383.13;;;9.98;100.00
2681;BME280;1350;42.134;24.708;2023-03-16T01:46:41;98397.44;;;9.83;100.00
2681;BME280;1350;42.134;24.708;2023-03-16T01:49:10;98387.06;;;9.80;100.00
2681;BME280;1350;42.134;24.708;2023-03-16T01:51:41;98402.91;;;9.68;100.00
2681;BME280;1350;42.134;24.708;2023-03-16T01:54:14;98406.41;;;9.56;99.98
2681;BME280;1350;42.134;24.708;2023-03-16T01:56:45;98396.94;;;9.52;100.00
2681;BME280;1350;42.134;24.708;2023-03-16T01:59:17;98408.38;;;9.52;100.00
2681;BME280;1350;42.134;24.708;2023-03-16T02:01:47;98408.16;;;9.43;100.00
2681;BME280;1350;42.134;24.708;2023-03-16T02:07:12;98407.81;;;9.35;100.00
2681;BME280;1350;42.134;24.708;2023-03-16T02:09:44;98407.06;;;9.33;100.00
2681;BME280;1350;42.134;24.708;2023-03-16T02:12:13;98423.56;;;9.24;100.00
2681;BME280;1350;42.134;24.708;2023-03-16T02:14:44;98421.69;;;9.38;100.00
2681;BME280;1350;42.134;24.708;2023-03-16T02:17:11;98426.34;;;9.35;100.00
2681;BME280;1350;42.134;24.708;2023-03-16T02:19:45;98425.38;;;9.36;100.00
2681;BME280;1350;42.134;24.708;2023-03-16T02:22:17;98435.50;;;9.29;100.00
2681;BME280;1350;42.134;24.708;2023-03-16T02:24:44;98431.81;;;9.32;100.00
2681;BME280;1350;42.134;24.708;2023-03-16T02:27:12;98432.34;;;9.37;100.00
2681;BME280;1350;42.134;24.708;2023-03-16T02:30:03;98437.59;;;9.24;100.00
2681;BME280;1350;42.134;24.708;2023-03-16T02:32:32;98438.81;;;9.33;100.00
2681;BME280;1350;42.134;24.708;2023-03-16T02:34:59;98446.09;;;9.29;100.00
2681;BME280;1350;42.134;24.708;2023-03-16T02:37:27;98447.34;;;9.24;100.00
2681;BME280;1350;42.134;24.708;2023-03-16T02:39:54;98449.69;;;9.28;100.00
2681;BME280;1350;42.134;24.708;2023-03-16T02:42:22;98447.34;;;9.24;100.00
2681;BME280;1350;42.134;24.708;2023-03-16T02:44:53;98453.06;;;9.30;100.00
2681;BME280;1350;42.134;24.708;2023-03-16T02:47:27;98452.63;;;9.24;100.00
2681;BME280;1350;42.134;24.708;2023-03-16T02:49:56;98458.13;;;9.21;100.00
2681;BME280;1350;42.134;24.708;2023-03-16T02:52:23;98450.03;;;9.10;100.00
2681;BME280;1350;42.134;24.708;2023-03-16T02:54:50;98456.91;;;9.12;100.00
2681;BME280;1350;42.134;24.708;2023-03-16T02:57:16;98472.88;;;9.11;100.00
2681;BME280;1350;42.134;24.708;2023-03-16T02:59:43;98477.13;;;9.13;100.00
2681;BME280;1350;42.134;24.708;2023-03-16T03:02:10;98480.25;;;9.06;100.00
2681;BME280;1350;42.134;24.708;2023-03-16T03:04:38;98478.47;;;8.92;99.62
2681;BME280;1350;42.134;24.708;2023-03-16T03:07:05;98481.31;;;8.89;99.16
2681;BME280;1350;42.134;24.708;2023-03-16T03:09:32;98487.38;;;8.77;99.18
2681;BME280;1350;42.134;24.708;2023-03-16T03:11:58;98494.63;;;8.74;98.71
2681;BME280;1350;42.134;24.708;2023-03-16T03:14:25;98491.56;;;8.67;98.21
2681;BME280;1350;42.134;24.708;2023-03-16T03:16:53;98503.72;;;8.70;98.61
2681;BME280;1350;42.134;24.708;2023-03-16T03:19:20;98495.41;;;8.62;100.00
2681;BME280;1350;42.134;24.708;2023-03-16T03:21:49;98511.75;;;8.68;99.27
2681;BME280;1350;42.134;24.708;2023-03-16T03:24:16;98511.06;;;8.65;99.46
2681;BME280;1350;42.134;24.708;2023-03-16T03:26:43;98515.53;;;8.64;99.37
2681;BME280;1350;42.134;24.708;2023-03-16T03:29:10;98512.41;;;8.57;99.67
2681;BME280;1350;42.134;24.708;2023-03-16T03:31:37;98521.25;;;8.56;99.77
2681;BME280;1350;42.134;24.708;2023-03-16T03:34:04;98520.81;;;8.50;100.00
2681;BME280;1350;42.134;24.708;2023-03-16T03:36:31;98523.91;;;8.56;100.00
2681;BME280;1350;42.134;24.708;2023-03-16T03:38:59;98523.16;;;8.54;100.00
2681;BME280;1350;42.134;24.708;2023-03-16T03:41:29;98529.75;;;8.47;100.00
2681;BME280;1350;42.134;24.708;2023-03-16T03:43:57;98529.75;;;8.62;100.00
2681;BME280;1350;42.134;24.708;2023-03-16T03:46:24;98533.53;;;8.57;100.00
2681;BME280;1350;42.134;24.708;2023-03-16T03:48:50;98535.50;;;8.54;100.00
2681;BME280;1350;42.134;24.708;2023-03-16T03:51:17;98536.84;;;8.47;100.00
2681;BME280;1350;42.134;24.708;2023-03-16T03:53:44;98541.06;;;8.49;100.00
2681;BME280;1350;42.134;24.708;2023-03-16T03:56:12;98544.19;;;8.42;100.00
2681;BME280;1350;42.134;24.708;2023-03-16T03:58:38;98540.59;;;8.43;100.00
2681;BME280;1350;42.134;24.708;2023-03-16T04:01:05;98537.47;;;8.36;100.00
2681;BME280;1350;42.134;24.708;2023-03-16T04:03:32;98540.38;;;8.32;100.00
2681;BME280;1350;42.134;24.708;2023-03-16T04:05:59;98548.06;;;8.21;100.00
2681;BME280;1350;42.134;24.708;2023-03-16T04:08:25;98550.47;;;8.25;100.00
2681;BME280;1350;42.134;24.708;2023-03-16T04:10:52;98548.91;;;8.21;100.00
2681;BME280;1350;42.134;24.708;2023-03-16T04:13:20;98544.19;;;8.12;100.00
2681;BME280;1350;42.134;24.708;2023-03-16T04:15:47;98542.25;;;8.00;100.00
2681;BME280;1350;42.134;24.708;2023-03-16T04:18:14;98551.88;;;8.01;100.00
2681;BME280;1350;42.134;24.708;2023-03-16T04:20:40;98547.63;;;7.99;100.00
2681;BME280;1350;42.134;24.708;2023-03-16T04:23:07;98557.59;;;7.94;100.00
2681;BME280;1350;42.134;24.708;2023-03-16T04:25:34;98559.13;;;7.98;100.00
2681;BME280;1350;42.134;24.708;2023-03-16T04:28:02;98557.41;;;7.97;100.00
2681;BME280;1350;42.134;24.708;2023-03-16T04:30:30;98571.16;;;7.88;100.00
2681;BME280;1350;42.134;24.708;2023-03-16T04:32:57;98580.84;;;7.87;100.00
2681;BME280;1350;42.134;24.708;2023-03-16T04:35:24;98570.28;;;7.87;100.00
2681;BME280;1350;42.134;24.708;2023-03-16T04:37:51;98584.16;;;7.91;100.00
2681;BME280;1350;42.134;24.708;2023-03-16T04:40:17;98587.34;;;7.82;100.00
2681;BME280;1350;42.134;24.708;2023-03-16T04:42:46;98572.19;;;7.85;100.00
2681;BME280;1350;42.134;24.708;2023-03-16T04:45:14;98587.59;;;7.77;99.37
2681;BME280;1350;42.134;24.708;2023-03-16T04:47:43;98591.84;;;7.80;99.40
2681;BME280;1350;42.134;24.708;2023-03-16T04:50:11;98603.94;;;7.84;99.20
2681;BME280;1350;42.134;24.708;2023-03-16T04:52:38;98594.47;;;7.80;100.00
2681;BME280;1350;42.134;24.708;2023-03-16T04:55:05;98611.94;;;7.82;99.11
2681;BME280;1350;42.134;24.708;2023-03-16T04:57:31;98600.63;;;7.80;98.10
2681;BME280;1350;42.134;24.708;2023-03-16T04:59:59;98612.88;;;7.81;98.32
2681;BME280;1350;42.134;24.708;2023-03-16T05:02:26;98614.50;;;7.84;97.84
2681;BME280;1350;42.134;24.708;2023-03-16T05:04:54;98622.50;;;7.82;97.51
2681;BME280;1350;42.134;24.708;2023-03-16T05:07:21;98619.09;;;7.80;96.51
2681;BME280;1350;42.134;24.708;2023-03-16T05:09:48;98633.88;;;7.83;95.65
2681;BME280;1350;42.134;24.708;2023-03-16T05:12:15;98640.38;;;7.77;94.62
2681;BME280;1350;42.134;24.708;2023-03-16T05:14:42;98631.84;;;7.72;94.92
2681;BME280;1350;42.134;24.708;2023-03-16T05:17:08;98649.50;;;7.72;94.76
2681;BME280;1350;42.134;24.708;2023-03-16T05:19:39;98651.88;;;7.76;94.25
2681;BME280;1350;42.134;24.708;2023-03-16T05:22:08;98645.91;;;7.73;93.64
2681;BME280;1350;42.134;24.708;2023-03-16T05:24:34;98647.34;;;7.78;94.39
2681;BME280;1350;42.134;24.708;2023-03-16T05:27:02;98664.88;;;7.79;94.27
2681;BME280;1350;42.134;24.708;2023-03-16T05:29:29;98670.50;;;7.73;94.38
2681;BME280;1350;42.134;24.708;2023-03-16T05:31:56;98664.81;;;7.81;94.48
2681;BME280;1350;42.134;24.708;2023-03-16T05:34:23;98678.81;;;7.81;93.68
2681;BME280;1350;42.134;24.708;2023-03-16T05:36:50;98681.56;;;7.80;94.24
2681;BME280;1350;42.134;24.708;2023-03-16T05:39:18;98683.53;;;7.76;92.91
2681;BME280;1350;42.134;24.708;2023-03-16T05:41:45;98683.28;;;7.81;91.94
2681;BME280;1350;42.134;24.708;2023-03-16T05:44:12;98684.69;;;7.71;92.10
2681;BME280;1350;42.134;24.708;2023-03-16T05:46:38;98680.13;;;7.74;91.20
2681;BME280;1350;42.134;24.708;2023-03-16T05:49:05;98696.03;;;7.73;92.72
2681;BME280;1350;42.134;24.708;2023-03-16T05:51:32;98694.56;;;7.67;91.81
2681;BME280;1350;42.134;24.708;2023-03-16T05:53:58;98691.84;;;7.69;91.00
2681;BME280;1350;42.134;24.708;2023-03-16T05:56:27;98688.13;;;7.73;92.29
2681;BME280;1350;42.134;24.708;2023-03-16T05:58:55;98700.34;;;7.74;92.93
2681;BME280;1350;42.134;24.708;2023-03-16T06:01:22;98707.75;;;7.83;92.53
2681;BME280;1350;42.134;24.708;2023-03-16T06:03:49;98708.47;;;7.86;93.26
2681;BME280;1350;42.134;24.708;2023-03-16T06:06:17;98713.56;;;7.89;92.52
2681;BME280;1350;42.134;24.708;2023-03-16T06:08:44;98721.47;;;7.89;91.53
2681;BME280;1350;42.134;24.708;2023-03-16T06:11:11;98722.16;;;7.93;91.26
2681;BME280;1350;42.134;24.708;2023-03-16T06:13:39;98728.28;;;7.93;89.96
2681;BME280;1350;42.134;24.708;2023-03-16T06:16:07;98732.56;;;7.96;89.59
2681;BME280;1350;42.134;24.708;2023-03-16T06:18:36;98734.50;;;7.92;90.22
2681;BME280;1350;42.134;24.708;2023-03-16T06:21:04;98743.97;;;7.96;90.12
2681;BME280;1350;42.134;24.708;2023-03-16T06:23:31;98745.50;;;8.00;90.44
2681;BME280;1350;42.134;24.708;2023-03-16T06:25:58;98732.63;;;7.94;89.37
2681;BME280;1350;42.134;24.708;2023-03-16T06:28:25;98748.22;;;7.99;89.95
2681;BME280;1350;42.134;24.708;2023-03-16T06:30:54;98740.13;;;8.02;88.67
2681;BME280;1350;42.134;24.708;2023-03-16T06:33:21;98736.06;;;7.96;88.19
2681;BME280;1350;42.134;24.708;2023-03-16T06:35:47;98738.69;;;7.96;87.11
2681;BME280;1350;42.134;24.708;2023-03-16T06:38:14;98748.56;;;7.93;87.42
2681;BME280;1350;42.134;24.708;2023-03-16T06:40:41;98762.09;;;8.02;86.98
2681;BME280;1350;42.134;24.708;2023-03-16T06:43:08;98756.13;;;7.99;88.09
2681;BME280;1350;42.134;24.708;2023-03-16T06:45:35;98755.19;;;8.00;88.31
2681;BME280;1350;42.134;24.708;2023-03-16T06:48:04;98757.84;;;8.00;87.76
2681;BME280;1350;42.134;24.708;2023-03-16T06:50:31;98762.38;;;7.98;86.67
2681;BME280;1350;42.134;24.708;2023-03-16T06:52:57;98767.03;;;7.93;86.25
2681;BME280;1350;42.134;24.708;2023-03-16T06:55:24;98785.50;;;7.93;86.65
2681;BME280;1350;42.134;24.708;2023-03-16T06:57:51;98778.28;;;7.96;86.35
2681;BME280;1350;42.134;24.708;2023-03-16T07:00:18;98782.53;;;7.99;85.45
2681;BME280;1350;42.134;24.708;2023-03-16T07:02:45;98791.97;;;8.03;85.72
2681;BME280;1350;42.134;24.708;2023-03-16T07:05:14;98794.53;;;8.04;85.51
2681;BME280;1350;42.134;24.708;2023-03-16T07:07:41;98804.34;;;8.02;86.06
2681;BME280;1350;42.134;24.708;2023-03-16T07:10:09;98806.03;;;8.03;84.60
2681;BME280;1350;42.134;24.708;2023-03-16T07:12:36;98804.75;;;8.10;84.66
2681;BME280;1350;42.134;24.708;2023-03-16T07:15:04;98801.94;;;8.13;84.44
2681;BME280;1350;42.134;24.708;2023-03-16T07:17:31;98802.88;;;8.12;85.37
2681;BME280;1350;42.134;24.708;2023-03-16T07:19:58;98805.34;;;8.15;83.30
2681;BME280;1350;42.134;24.708;2023-03-16T07:22:26;98799.13;;;8.16;84.26
2681;BME280;1350;42.134;24.708;2023-03-16T07:24:53;98807.00;;;8.18;83.66
2681;BME280;1350;42.134;24.708;2023-03-16T07:27:21;98807.25;;;8.29;83.15
2681;BME280;1350;42.134;24.708;2023-03-16T07:29:49;98817.16;;;8.25;81.76
2681;BME280;1350;42.134;24.708;2023-03-16T07:32:16;98814.19;;;8.31;82.63
2681;BME280;1350;42.134;24.708;2023-03-16T07:34:43;98822.03;;;8.33;83.21
2681;BME280;1350;42.134;24.708;2023-03-16T07:37:09;98820.13;;;8.35;83.66
2681;BME280;1350;42.134;24.708;2023-03-16T07:39:38;98819.28;;;8.34;83.12
2681;BME280;1350;42.134;24.708;2023-03-16T07:42:05;98827.97;;;8.36;83.19
2681;BME280;1350;42.134;24.708;2023-03-16T07:44:31;98827.13;;;8.36;82.15
2681;BME280;1350;42.134;24.708;2023-03-16T07:46:58;98829.44;;;8.42;82.50
2681;BME280;1350;42.134;24.708;2023-03-16T07:49:26;98824.94;;;8.44;82.07
2681;BME280;1350;42.134;24.708;2023-03-16T07:51:53;98821.34;;;8.45;82.37
2681;BME280;1350;42.134;24.708;2023-03-16T07:54:19;98822.19;;;8.45;81.35
2681;BME280;1350;42.134;24.708;2023-03-16T07:56:47;98824.84;;;8.45;80.96
2681;BME280;1350;42.134;24.708;2023-03-16T07:59:14;98822.03;;;8.48;80.95
2681;BME280;1350;42.134;24.708;2023-03-16T08:01:41;98822.41;;;8.56;81.00
2681;BME280;1350;42.134;24.708;2023-03-16T08:04:08;98832.72;;;8.61;80.68
2681;BME280;1350;42.134;24.708;2023-03-16T08:06:36;98828.81;;;8.68;81.04
2681;BME280;1350;42.134;24.708;2023-03-16T08:09:03;98824.59;;;8.80;81.29
2681;BME280;1350;42.134;24.708;2023-03-16T08:11:30;98827.66;;;8.88;80.65
2681;BME280;1350;42.134;24.708;2023-03-16T08:13:58;98832.28;;;8.84;79.02
2681;BME280;1350;42.134;24.708;2023-03-16T08:16:25;98823.25;;;8.88;77.95
2681;BME280;1350;42.134;24.708;2023-03-16T08:18:55;98833.56;;;8.93;75.80
2681;BME280;1350;42.134;24.708;2023-03-16T08:21:22;98822.63;;;8.99;75.72
2681;BME280;1350;42.134;24.708;2023-03-16T08:23:49;98834.34;;;9.09;75.45
2681;BME280;1350;42.134;24.708;2023-03-16T08:26:16;98836.56;;;9.16;75.46
2681;BME280;1350;42.134;24.708;2023-03-16T08:28:44;98842.03;;;9.13;75.00
2681;BME280;1350;42.134;24.708;2023-03-16T08:31:13;98846.56;;;9.11;74.09
2681;BME280;1350;42.134;24.708;2023-03-16T08:33:41;98843.56;;;9.17;73.75
2681;BME280;1350;42.134;24.708;2023-03-16T08:36:10;98838.94;;;9.21;73.31
2681;BME280;1350;42.134;24.708;2023-03-16T08:38:38;98846.44;;;9.28;73.71
2681;BME280;1350;42.134;24.708;2023-03-16T08:41:05;98842.66;;;9.32;71.99
2681;BME280;1350;42.134;24.708;2023-03-16T08:43:32;98842.41;;;9.51;72.32
2681;BME280;1350;42.134;24.708;2023-03-16T08:46:00;98828.22;;;9.52;71.10
2681;BME280;1350;42.134;24.708;2023-03-16T08:48:29;98842.16;;;9.69;71.00
2681;BME280;1350;42.134;24.708;2023-03-16T08:51:00;98843.38;;;9.78;70.68
2681;BME280;1350;42.134;24.708;2023-03-16T08:53:27;98840.66;;;9.93;69.82
2681;BME280;1350;42.134;24.708;2023-03-16T08:56:00;98843.97;;;9.97;68.84
2681;BME280;1350;42.134;24.708;2023-03-16T08:58:27;98852.78;;;9.97;68.78
2681;BME280;1350;42.134;24.708;2023-03-16T09:00:54;98859.63;;;10.15;68.03
2681;BME280;1350;42.134;24.708;2023-03-16T09:03:21;98844.38;;;10.19;67.01
2681;BME280;1350;42.134;24.708;2023-03-16T09:05:49;98852.31;;;10.33;67.27
2681;BME280;1350;42.134;24.708;2023-03-16T09:08:16;98842.16;;;10.40;66.38
2681;BME280;1350;42.134;24.708;2023-03-16T09:10:43;98843.81;;;10.69;66.41
2681;BME280;1350;42.134;24.708;2023-03-16T09:13:11;98844.69;;;10.96;65.74
2681;BME280;1350;42.134;24.708;2023-03-16T09:15:38;98856.81;;;11.12;64.21
2681;BME280;1350;42.134;24.708;2023-03-16T09:18:05;98851.81;;;11.08;63.45
2681;BME280;1350;42.134;24.708;2023-03-16T09:20:32;98851.06;;;11.06;63.29
2681;BME280;1350;42.134;24.708;2023-03-16T09:23:00;98856.72;;;11.14;62.98
2681;BME280;1350;42.134;24.708;2023-03-16T09:25:27;98841.66;;;11.14;62.71
2681;BME280;1350;42.134;24.708;2023-03-16T09:27:54;98859.28;;;11.15;62.04
2681;BME280;1350;42.134;24.708;2023-03-16T09:30:21;98864.63;;;11.28;61.53
2681;BME280;1350;42.134;24.708;2023-03-16T09:32:48;98853.03;;;11.29;61.05
2681;BME280;1350;42.134;24.708;2023-03-16T09:35:15;98860.25;;;11.14;61.26
2681;BME280;1350;42.134;24.708;2023-03-16T09:37:42;98856.72;;;11.14;61.27
2681;BME280;1350;42.134;24.708;2023-03-16T09:40:20;98862.97;;;11.52;61.75
2681;BME280;1350;42.134;24.708;2023-03-16T09:42:57;98864.13;;;11.74;60.86
2681;BME280;1350;42.134;24.708;2023-03-16T09:45:32;98856.13;;;12.12;60.04
2681;BME280;1350;42.134;24.708;2023-03-16T09:48:03;98869.41;;;12.25;59.20
2681;BME280;1350;42.134;24.708;2023-03-16T09:50:33;98871.72;;;12.54;57.79
2681;BME280;1350;42.134;24.708;2023-03-16T09:53:06;98871.09;;;12.26;57.21
2681;BME280;1350;42.134;24.708;2023-03-16T09:55:40;98874.41;;;12.17;57.23
2681;BME280;1350;42.134;24.708;2023-03-16T09:58:12;98876.53;;;12.24;57.54
2681;BME280;1350;42.134;24.708;2023-03-16T10:00:47;98870.66;;;12.32;57.61
2681;BME280;1350;42.134;24.708;2023-03-16T10:03:27;98874.59;;;12.39;56.54
2681;BME280;1350;42.134;24.708;2023-03-16T10:05:58;98870.75;;;12.55;56.41
2681;BME280;1350;42.134;24.708;2023-03-16T10:08:30;98870.28;;;12.25;57.02
2681;BME280;1350;42.134;24.708;2023-03-16T10:11:10;98875.25;;;12.30;56.30
2681;BME280;1350;42.134;24.708;2023-03-16T10:13:43;98873.03;;;12.24;57.14
2681;BME280;1350;42.134;24.708;2023-03-16T10:16:15;98880.47;;;12.44;56.54
2681;BME280;1350;42.134;24.708;2023-03-16T10:18:45;98874.06;;;12.34;56.73
2681;BME280;1350;42.134;24.708;2023-03-16T10:21:14;98870.34;;;12.36;56.03
2681;BME280;1350;42.134;24.708;2023-03-16T10:23:43;98874.69;;;12.50;55.82
2681;BME280;1350;42.134;24.708;2023-03-16T10:26:15;98872.59;;;12.30;56.53
2681;BME280;1350;42.134;24.708;2023-03-16T10:28:44;98884.38;;;12.26;55.74
2681;BME280;1350;42.134;24.708;2023-03-16T10:31:11;98871.44;;;12.09;56.45
2681;BME280;1350;42.134;24.708;2023-03-16T10:33:39;98869.41;;;12.00;56.14
2681;BME280;1350;42.134;24.708;2023-03-16T10:36:12;98874.63;;;11.88;56.37
2681;BME280;1350;42.134;24.708;2023-03-16T10:38:42;98870.28;;;11.87;56.31
2681;BME280;1350;42.134;24.708;2023-03-16T10:41:27;98859.09;;;11.95;56.67
2681;BME280;1350;42.134;24.708;2023-03-16T10:43:56;98872.50;;;11.81;56.50
2681;BME280;1350;42.134;24.708;2023-03-16T10:46:25;98875.69;;;11.86;57.14
2681;BME280;1350;42.134;24.708;2023-03-16T10:48:54;98873.56;;;11.91;56.43
2681;BME280;1350;42.134;24.708;2023-03-16T10:51:26;98875.38;;;12.03;56.57
2681;BME280;1350;42.134;24.708;2023-03-16T10:53:56;98875.16;;;12.06;56.20
2681;BME280;1350;42.134;24.708;2023-03-16T10:56:32;98868.91;;;11.95;56.19
2681;BME280;1350;42.134;24.708;2023-03-16T10:58:59;98870.50;;;12.10;55.87
2681;BME280;1350;42.134;24.708;2023-03-16T11:01:28;98861.13;;;12.17;55.38
2681;BME280;1350;42.134;24.708;2023-03-16T11:03:56;98868.06;;;12.19;55.28
2681;BME280;1350;42.134;24.708;2023-03-16T11:06:25;98868.66;;;12.35;55.70
2681;BME280;1350;42.134;24.708;2023-03-16T11:09:02;98865.22;;;12.46;55.36
2681;BME280;1350;42.134;24.708;2023-03-16T11:11:31;98866.06;;;12.59;55.62
2681;BME280;1350;42.134;24.708;2023-03-16T11:14:00;98862.66;;;12.57;54.63
2681;BME280;1350;42.134;24.708;2023-03-16T11:16:31;98857.75;;;12.63;55.17
2681;BME280;1350;42.134;24.708;2023-03-16T11:19:04;98862.84;;;12.66;55.34
2681;BME280;1350;42.134;24.708;2023-03-16T11:21:42;98869.38;;;12.50;55.07
2681;BME280;1350;42.134;24.708;2023-03-16T11:24:22;98865.25;;;12.33;55.34
2681;BME280;1350;42.134;24.708;2023-03-16T11:26:54;98866.44;;;12.17;55.67
2681;BME280;1350;42.134;24.708;2023-03-16T11:29:27;98859.44;;;12.16;55.13
2681;BME280;1350;42.134;24.708;2023-03-16T11:32:00;98862.31;;;12.00;55.87
2681;BME280;1350;42.134;24.708;2023-03-16T11:34:29;98856.56;;;12.06;55.62
2681;BME280;1350;42.134;24.708;2023-03-16T11:36:59;98864.53;;;12.06;55.56
2681;BME280;1350;42.134;24.708;2023-03-16T11:39:35;98861.97;;;12.05;55.77
2681;BME280;1350;42.134;24.708;2023-03-16T11:42:22;98860.28;;;11.91;55.59
2681;BME280;1350;42.134;24.708;2023-03-16T11:44:54;98863.78;;;12.04;56.31
2681;BME280;1350;42.134;24.708;2023-03-16T11:48:05;98866.66;;;12.14;55.51
2681;BME280;1350;42.134;24.708;2023-03-16T11:50:43;98862.75;;;12.07;56.22
2681;BME280;1350;42.134;24.708;2023-03-16T11:53:19;98849.84;;;12.13;55.15
2681;BME280;1350;42.134;24.708;2023-03-16T11:55:55;98856.22;;;12.23;54.96
2681;BME280;1350;42.134;24.708;2023-03-16T11:58:36;98856.56;;;12.19;55.04
2681;BME280;1350;42.134;24.708;2023-03-16T12:01:11;98860.06;;;12.19;56.02
2681;BME280;1350;42.134;24.708;2023-03-16T12:04:03;98864.09;;;12.37;56.65
2681;BME280;1350;42.134;24.708;2023-03-16T12:06:49;98867.38;;;12.41;56.09
2681;BME280;1350;42.134;24.708;2023-03-16T12:09:47;98877.47;;;12.36;55.05
2681;BME280;1350;42.134;24.708;2023-03-16T12:12:33;98875.66;;;12.36;55.54
2681;BME280;1350;42.134;24.708;2023-03-16T12:15:18;98880.59;;;12.05;56.29
2681;BME280;1350;42.134;24.708;2023-03-16T12:17:47;98872.28;;;11.84;57.01
2681;BME280;1350;42.134;24.708;2023-03-16T12:20:18;98884.09;;;11.80;57.01
2681;BME280;1350;42.134;24.708;2023-03-16T12:22:50;98879.94;;;11.63;56.38
2681;BME280;1350;42.134;24.708;2023-03-16T12:25:21;98883.91;;;11.56;57.50
2681;BME280;1350;42.134;24.708;2023-03-16T12:27:51;98873.66;;;11.38;57.70
2681;BME280;1350;42.134;24.708;2023-03-16T12:30:26;98876.81;;;11.30;58.55
2681;BME280;1350;42.134;24.708;2023-03-16T12:33:00;98878.56;;;11.31;58.05
2681;BME280;1350;42.134;24.708;2023-03-16T12:35:38;98881.00;;;11.34;58.01
2681;BME280;1350;42.134;24.708;2023-03-16T12:38:32;98890.44;;;11.38;58.43
2681;BME280;1350;42.134;24.708;2023-03-16T12:41:18;98892.44;;;11.35;58.92
2681;BME280;1350;42.134;24.708;2023-03-16T12:44:00;98892.13;;;11.39;59.16
2681;BME280;1350;42.134;24.708;2023-03-16T12:46:37;98879.16;;;11.35;58.85
2681;BME280;1350;42.134;24.708;2023-03-16T12:49:08;98894.69;;;11.28;59.11
2681;BME280;1350;42.134;24.708;2023-03-16T12:51:36;98876.69;;;11.19;58.65
2681;BME280;1350;42.134;24.708;2023-03-16T12:54:04;98889.31;;;11.16;58.98
2681;BME280;1350;42.134;24.708;2023-03-16T12:56:34;98911.28;;;11.18;58.73
2681;BME280;1350;42.134;24.708;2023-03-16T12:59:03;98892.44;;;11.22;59.63
2681;BME280;1350;42.134;24.708;2023-03-16T13:01:40;98903.78;;;11.24;59.45
2681;BME280;1350;42.134;24.708;2023-03-16T13:04:10;98902.78;;;11.13;59.20
2681;BME280;1350;42.134;24.708;2023-03-16T13:06:42;98907.94;;;11.02;59.22
2681;BME280;1350;42.134;24.708;2023-03-16T13:09:11;98912.84;;;11.08;59.08
2681;BME280;1350;42.134;24.708;2023-03-16T13:11:44;98909.09;;;10.98;60.03
2681;BME280;1350;42.134;24.708;2023-03-16T13:14:16;98911.34;;;11.04;59.82
2681;BME280;1350;42.134;24.708;2023-03-16T13:17:04;98913.25;;;11.02;59.88
2681;BME280;1350;42.134;24.708;2023-03-16T13:19:31;98923.56;;;11.06;59.60
2681;BME280;1350;42.134;24.708;2023-03-16T13:22:16;98925.91;;;11.11;59.36
2681;BME280;1350;42.134;24.708;2023-03-16T13:24:50;98918.34;;;11.05;60.37
2681;BME280;1350;42.134;24.708;2023-03-16T13:27:20;98927.66;;;11.24;59.97
2681;BME280;1350;42.134;24.708;2023-03-16T13:29:53;98940.09;;;11.24;60.91